Hubbards, Canada
Current Conditions -  °F | °C
As of 12:00 PM on Saturday 22 Nov 2014 (Local Time) from CYHZ Reporting Station
Scattered Clouds Scattered Clouds  
Wind Chill: 14°   Ceiling: Unl
Heat Index: 27°   Visibility: 15mi
Dew Point: 12°   Wind: 16mph
Humidity: 55%   Direction: 280°W
Pressure: 30.13"   Gusts: 24mph
Location:  44.63°N, 64.05°W
Report Text: CYHZ 221600Z 28014G21KT 15SM SCT028 SCT150 M03/M11 A3013 RMK SC3AC1 SLP211
Loading
Personal Weather Stations






























Interactive Weather Map New forecast layout! Learn more

10-Day Weather Forecast

Advertisements
Track Severe Weather on mobile